Time;durP1;ratioP1;P1;durP2;ratioP2;P2;SDS_P1;SDS_P2;PMS_P1;PMS_P2;Temp;Humidity;BMP_temperature;BMP_pressure;BME280_temperature;BME280_humidity;BME280_pressure;Samples;Min_cycle;Max_cycle;Signal;HPM_P1;HPM_P2
2023/02/03 00:02:18;;;;;;;6.82;3.03;;;128.20;2252.80;;;;;;5047024;28;20278;-76
2023/02/03 00:04:44;;;;;;;;;;;128.20;2252.80;;;;;;5047845;28;20025;-76
2023/02/03 00:07:12;;;;;;;6.97;2.55;;;128.10;2252.80;;;;;;5066134;28;19982;-76
2023/02/03 00:09:38;;;;;;;5.63;2.30;;;128.10;2252.80;;;;;;5064614;28;20079;-76
2023/02/03 00:12:05;;;;;;;7.75;3.20;;;128.40;2252.80;;;;;;5047900;28;20393;-76
2023/02/03 00:14:32;;;;;;;10.80;3.28;;;128.10;2252.80;;;;;;5048302;28;20028;-76
2023/02/03 00:16:58;;;;;;;4.97;2.80;;;128.10;2252.80;;;;;;5046585;28;20037;-76
2023/02/03 00:19:24;;;;;;;;;;;128.00;2252.80;;;;;;5066054;28;20078;-77
2023/02/03 00:21:49;;;;;;;21.27;8.70;;;128.10;2252.80;;;;;;5044523;28;19954;-76
2023/02/03 00:24:15;;;;;;;;;;;128.00;2252.80;;;;;;5066802;28;20017;-76
2023/02/03 00:26:42;;;;;;;7.05;2.42;;;128.00;2252.80;;;;;;5046655;28;19931;-76
2023/02/03 00:29:08;;;;;;;5.03;2.53;;;103.20;2227.20;;;;;;5047177;28;20036;-76
2023/02/03 00:31:34;;;;;;;;;;;128.00;2252.80;;;;;;5048644;28;20029;-76
2023/02/03 00:33:59;;;;;;;6.68;2.20;;;128.10;2252.80;;;;;;5046224;28;19905;-76
2023/02/03 00:36:25;;;;;;;;;;;128.10;2252.80;;;;;;5047645;28;20401;-76
2023/02/03 00:38:52;;;;;;;5.28;2.45;;;128.10;2252.80;;;;;;5047682;28;19905;-76
2023/02/03 00:41:18;;;;;;;5.07;2.20;;;128.70;2252.80;;;;;;5046116;28;20048;-76
2023/02/03 00:43:43;;;;;;;5.93;2.00;;;128.00;2252.80;;;;;;5047779;28;20048;-76
2023/02/03 00:46:09;;;;;;;;;;;128.00;2252.80;;;;;;5047507;28;20057;-76
2023/02/03 00:48:35;;;;;;;4.72;2.03;;;128.00;2252.80;;;;;;5063650;28;19919;-76
2023/02/03 00:51:00;;;;;;;;;;;128.00;2252.80;;;;;;5047814;28;20117;-76
2023/02/03 00:53:26;;;;;;;4.65;1.83;;;128.10;2252.80;;;;;;5047546;28;20301;-76
2023/02/03 00:55:52;;;;;;;;;;;128.10;2252.80;;;;;;5047632;28;20479;-76
2023/02/03 00:58:17;;;;;;;10.13;2.53;;;128.10;2252.80;;;;;;5045344;28;19905;-75
2023/02/03 01:00:43;;;;;;;;;;;128.00;2252.80;;;;;;5065961;28;20021;-76
2023/02/03 01:03:09;;;;;;;6.10;2.58;;;128.10;2252.80;;;;;;5046654;28;20051;-75
2023/02/03 01:05:35;;;;;;;;;;;128.10;2252.80;;;;;;5064144;28;20103;-76
2023/02/03 01:08:01;;;;;;;6.82;2.28;;;128.10;2252.80;;;;;;5047414;28;20042;-75
2023/02/03 01:10:27;;;;;;;7.15;2.55;;;128.00;2252.80;;;;;;5046234;28;20025;-76
2023/02/03 01:12:53;;;;;;;5.82;2.65;;;128.00;2252.80;;;;;;5063679;28;20029;-76
2023/02/03 01:15:19;;;;;;;;;;;128.00;2252.80;;;;;;5065134;28;20406;-75
2023/02/03 01:17:44;;;;;;;4.18;2.03;;;128.10;2252.80;;;;;;5045742;28;19905;-76
2023/02/03 01:20:15;;;;;;;;;;;128.00;2252.80;;;;;;5064574;28;20021;-76
2023/02/03 01:22:40;;;;;;;8.43;2.22;;;128.00;2252.80;;;;;;5044689;28;19916;-75
2023/02/03 01:25:06;;;;;;;;;;;103.20;2227.20;;;;;;5065092;28;20040;-76
2023/02/03 01:27:32;;;;;;;10.50;2.40;;;103.30;2227.20;;;;;;5046422;28;20358;-76
2023/02/03 01:29:58;;;;;;;;;;;103.30;2227.20;;;;;;5063448;28;20111;-76
2023/02/03 01:32:24;;;;;;;6.32;2.85;;;103.30;2227.20;;;;;;5047155;28;20348;-76
2023/02/03 01:34:50;;;;;;;7.65;2.70;;;103.20;2227.20;;;;;;5063720;28;20100;-76
2023/02/03 01:37:16;;;;;;;;;;;103.20;2227.20;;;;;;5045865;28;20119;-76
2023/02/03 01:39:43;;;;;;;6.03;2.47;;;103.10;2227.20;;;;;;5044748;28;20432;-76
2023/02/03 01:42:12;;;;;;;7.25;2.88;;;103.20;2227.20;;;;;;5051786;28;20060;-76
2023/02/03 01:44:40;;;;;;;6.30;3.25;;;103.20;2227.20;;;;;;5055746;28;20082;-76
2023/02/03 01:47:14;;;;;;;6.28;2.45;;;103.20;2227.20;;;;;;5073346;28;20028;-76
2023/02/03 01:49:44;;;;;;;6.15;2.60;;;103.20;2227.20;;;;;;5073220;28;20020;-76
2023/02/03 01:52:10;;;;;;;6.30;2.25;;;103.20;2227.20;;;;;;5055077;28;20759;-77
2023/02/03 01:54:43;;;;;;;7.22;2.25;;;103.20;2227.20;;;;;;5073357;28;20032;-77
2023/02/03 01:57:20;;;;;;;4.82;2.35;;;103.20;2227.20;;;;;;5055480;28;20028;-76
2023/02/03 01:59:47;;;;;;;5.75;2.38;;;103.10;2227.20;;;;;;5054649;28;20024;-76
2023/02/03 02:02:13;;;;;;;7.97;2.25;;;103.10;2227.20;;;;;;5055302;28;20024;-76
2023/02/03 02:04:51;;;;;;;;;;;103.10;2227.20;;;;;;5054858;28;20033;-77
2023/02/03 02:07:17;;;;;;;6.15;2.40;;;103.00;2227.20;;;;;;5072998;28;19912;-76
2023/02/03 02:09:43;;;;;;;;;;;102.90;2227.20;;;;;;5055638;28;20056;-76
2023/02/03 02:12:10;;;;;;;2.20;1.58;;;103.00;2227.20;;;;;;5055141;28;19905;-76
2023/02/03 02:14:37;;;;;;;6.78;2.78;;;102.90;2227.20;;;;;;5054303;28;20032;-76
2023/02/03 02:17:33;;;;;;;5.07;2.08;;;102.80;2227.20;;;;;;5072858;28;20483;-76
2023/02/03 02:20:23;;;;;;;3.70;2.20;;;102.80;2227.20;;;;;;5045495;28;20047;-76
2023/02/03 02:23:17;;;;;;;6.88;2.30;;;102.80;2227.20;;;;;;5047934;28;20033;-77
2023/02/03 02:26:20;;;;;;;5.05;2.00;;;102.70;2227.20;;;;;;5045468;28;20033;-75
2023/02/03 02:29:08;;;;;;;4.78;2.25;;;102.70;2227.20;;;;;;5044768;28;20040;-76
2023/02/03 02:32:02;;;;;;;4.30;2.45;;;102.70;2227.20;;;;;;5062003;28;20020;-76
2023/02/03 02:34:49;;;;;;;4.10;2.28;;;102.70;2227.20;;;;;;5045576;28;20378;-76
2023/02/03 02:37:36;;;;;;;4.40;2.33;;;102.70;2227.20;;;;;;5056950;28;20061;-76
2023/02/03 02:40:27;;;;;;;3.97;1.80;;;102.70;2227.20;;;;;;5042565;28;20115;-76
2023/02/03 02:42:58;;;;;;;4.13;1.83;;;102.70;2227.20;;;;;;5067108;28;20092;-76
2023/02/03 02:45:40;;;;;;;5.50;2.47;;;102.80;2227.20;;;;;;5066293;28;20028;-77
2023/02/03 02:48:14;;;;;;;4.63;2.20;;;102.70;2227.20;;;;;;5039797;28;20102;-77
2023/02/03 02:50:44;;;;;;;5.15;2.30;;;102.70;2227.20;;;;;;5039363;28;20051;-76
2023/02/03 02:53:12;;;;;;;5.70;3.35;;;102.70;2227.20;;;;;;5061775;28;20078;-76
2023/02/03 02:55:39;;;;;;;4.40;2.30;;;102.70;2227.20;;;;;;5037996;28;20033;-76
2023/02/03 02:58:09;;;;;;;6.28;2.80;;;102.70;2227.20;;;;;;5042049;28;20056;-76
2023/02/03 03:00:35;;;;;;;5.55;2.33;;;102.70;2227.20;;;;;;5059317;28;20020;-76
2023/02/03 03:03:12;;;;;;;5.78;2.85;;;102.70;2227.20;;;;;;5042366;28;20025;-76
2023/02/03 03:05:39;;;;;;;;;;;102.70;2227.20;;;;;;5060232;28;20012;-76
2023/02/03 03:08:07;;;;;;;3.92;1.75;;;102.70;2227.20;;;;;;5039336;28;19913;-76
2023/02/03 03:10:34;;;;;;;7.30;2.55;;;102.70;2227.20;;;;;;5046333;28;20043;-76
2023/02/03 03:13:04;;;;;;;6.20;2.63;;;102.60;2227.20;;;;;;5061105;28;20040;-76
2023/02/03 03:15:33;;;;;;;7.65;2.55;;;102.60;2227.20;;;;;;5042839;28;20024;-76
2023/02/03 03:18:16;;;;;;;6.40;2.78;;;102.60;2227.20;;;;;;5040559;28;20025;-76
2023/02/03 03:20:45;;;;;;;5.68;2.90;;;102.60;2227.20;;;;;;5054206;28;20501;-75
2023/02/03 03:23:38;;;;;;;4.85;2.30;;;102.60;2227.20;;;;;;5050298;28;20040;-75
2023/02/03 03:26:31;;;;;;;4.75;2.35;;;102.60;2227.20;;;;;;4993869;28;20065;-76
2023/02/03 03:29:22;;;;;;;6.50;2.75;;;102.60;2227.20;;;;;;4991504;28;20057;-77
2023/02/03 03:31:48;;;;;;;6.55;2.67;;;102.60;2227.20;;;;;;4958240;28;20033;-75
2023/02/03 03:34:15;;;;;;;;;;;102.60;2227.20;;;;;;4977857;28;20384;-77
2023/02/03 03:37:01;;;;;;;6.05;3.08;;;102.60;2227.20;;;;;;4993656;28;19909;-76
2023/02/03 03:39:44;;;;;;;6.20;2.60;;;102.70;2227.20;;;;;;4992954;28;20181;-76
2023/02/03 03:42:33;;;;;;;7.57;2.83;;;102.60;2227.20;;;;;;4993683;28;20059;-75
2023/02/03 03:45:33;;;;;;;6.32;2.92;;;102.70;2227.20;;;;;;4966735;28;20065;-76
2023/02/03 03:48:07;;;;;;;14.02;3.00;;;102.60;2227.20;;;;;;4991814;28;20101;-76
2023/02/03 03:50:52;;;;;;;7.40;3.35;;;102.60;2227.20;;;;;;4993270;28;20061;-76
2023/02/03 03:53:20;;;;;;;8.13;2.83;;;102.60;2227.20;;;;;;4977364;28;20046;-76
2023/02/03 03:55:50;;;;;;;5.70;2.78;;;102.70;2227.20;;;;;;4993336;28;20090;-76
2023/02/03 03:58:23;;;;;;;9.85;3.30;;;102.70;2227.20;;;;;;4982987;28;20022;-76
2023/02/03 04:00:49;;;;;;;8.00;3.33;;;102.70;2227.20;;;;;;4993733;28;20062;-76
2023/02/03 04:03:23;;;;;;;10.20;4.03;;;102.70;2227.20;;;;;;5027246;28;20043;-76
2023/02/03 04:05:49;;;;;;;7.30;2.75;;;102.70;2227.20;;;;;;5048690;28;20027;-76
2023/02/03 04:08:15;;;;;;;6.10;2.72;;;102.60;2227.20;;;;;;5065168;28;20036;-76
2023/02/03 04:10:42;;;;;;;6.65;2.97;;;102.60;2227.20;;;;;;5046578;28;20479;-76
2023/02/03 04:13:11;;;;;;;6.55;2.90;;;102.60;2227.20;;;;;;5048492;28;20032;-77
2023/02/03 04:15:36;;;;;;;5.35;2.92;;;102.70;2227.20;;;;;;5051263;28;20063;-77
2023/02/03 04:18:02;;;;;;;;;;;102.70;2227.20;;;;;;5057193;28;20024;-78
2023/02/03 04:20:30;;;;;;;4.65;2.70;;;102.70;2227.20;;;;;;5051195;28;19954;-76
2023/02/03 04:22:57;;;;;;;5.72;2.60;;;102.60;2227.20;;;;;;5039462;28;20025;-76
2023/02/03 04:25:23;;;;;;;4.55;2.80;;;102.60;2227.20;;;;;;5046533;28;20021;-76
2023/02/03 04:27:49;;;;;;;4.43;2.50;;;102.70;2227.20;;;;;;5071020;28;20028;-76
2023/02/03 04:30:17;;;;;;;;;;;102.50;2227.20;;;;;;5039559;28;20025;-76
2023/02/03 04:32:45;;;;;;;7.00;2.75;;;102.50;2227.20;;;;;;5045907;28;20415;-77
2023/02/03 04:35:11;;;;;;;5.90;2.78;;;102.50;2227.20;;;;;;5045169;28;20049;-76
2023/02/03 04:37:37;;;;;;;;;;;102.50;2227.20;;;;;;5045838;28;20548;-77
2023/02/03 04:40:03;;;;;;;5.75;2.75;;;102.40;2227.20;;;;;;5064317;28;19908;-76
2023/02/03 04:42:29;;;;;;;5.70;2.63;;;102.50;2227.20;;;;;;5044033;28;20463;-76
2023/02/03 04:44:55;;;;;;;;;;;102.50;2227.20;;;;;;5048076;28;20025;-76
2023/02/03 04:47:20;;;;;;;6.78;2.92;;;102.50;2227.20;;;;;;5064426;28;19956;-75
2023/02/03 04:49:46;;;;;;;;;;;102.50;2227.20;;;;;;5044623;28;20030;-77
2023/02/03 04:52:12;;;;;;;9.32;4.10;;;102.60;2227.20;;;;;;5049250;28;19913;-76
2023/02/03 04:54:38;;;;;;;5.80;2.55;;;102.50;2227.20;;;;;;5067136;28;20048;-77
2023/02/03 04:57:04;;;;;;;;;;;102.50;2227.20;;;;;;5041947;28;20030;-77
2023/02/03 04:59:30;;;;;;;6.93;2.60;;;102.50;2227.20;;;;;;5058913;28;20373;-77
2023/02/03 05:01:56;;;;;;;;;;;102.50;2227.20;;;;;;5042385;28;20025;-76
2023/02/03 05:04:22;;;;;;;4.47;2.42;;;102.50;2227.20;;;;;;5045968;28;19911;-76
2023/02/03 05:06:47;;;;;;;;;;;102.40;2227.20;;;;;;5035963;28;20052;-76
2023/02/03 05:09:13;;;;;;;4.75;2.50;;;102.40;2227.20;;;;;;5038372;28;19912;-76
2023/02/03 05:11:39;;;;;;;;;;;77.70;2227.20;;;;;;5068132;28;20104;-76
2023/02/03 05:14:04;;;;;;;7.82;2.70;;;102.40;2227.20;;;;;;5050388;28;19942;-76
2023/02/03 05:16:30;;;;;;;;;;;77.70;2227.20;;;;;;5051234;28;20032;-76
2023/02/03 05:18:56;;;;;;;7.45;3.72;;;77.70;2227.20;;;;;;5053541;28;19904;-76
2023/02/03 05:21:21;;;;;;;;;;;77.60;2227.20;;;;;;5053201;28;20021;-77
2023/02/03 05:23:47;;;;;;;4.85;2.38;;;77.70;2227.20;;;;;;5045469;28;19964;-76
2023/02/03 05:26:13;;;;;;;;;;;77.70;2227.20;;;;;;5043709;28;20497;-77
2023/02/03 05:28:38;;;;;;;6.85;2.88;;;77.60;2227.20;;;;;;5040757;28;19943;-75
2023/02/03 05:31:04;;;;;;;;;;;77.70;2227.20;;;;;;5039384;28;20111;-78
2023/02/03 05:33:30;;;;;;;6.70;2.92;;;77.70;2227.20;;;;;;5064024;28;19909;-76
2023/02/03 05:35:55;;;;;;;;;;;77.60;2227.20;;;;;;5047028;28;20481;-77
2023/02/03 05:38:21;;;;;;;7.05;3.17;;;77.50;2227.20;;;;;;5044022;28;20332;-76
2023/02/03 05:43:35;;;;;;;5.82;2.88;;;77.60;2227.20;;;;;;5061492;28;20012;-76
2023/02/03 05:46:04;;;;;;;;;;;77.30;2227.20;;;;;;5064239;28;20021;-76
2023/02/03 05:48:31;;;;;;;7.43;3.38;;;77.50;2227.20;;;;;;5040442;28;19913;-76
2023/02/03 05:50:57;;;;;;;7.95;4.63;;;77.50;2227.20;;;;;;5037347;28;20021;-76
2023/02/03 05:53:22;;;;;;;;;;;77.50;2227.20;;;;;;5040378;28;20056;-76
2023/02/03 05:55:48;;;;;;;7.50;3.28;;;77.60;2227.20;;;;;;5037099;28;19904;-76
2023/02/03 05:58:14;;;;;;;;;;;77.60;2227.20;;;;;;5045680;28;20024;-76
2023/02/03 06:00:39;;;;;;;8.10;3.47;;;77.60;2227.20;;;;;;5045681;28;20282;-77
2023/02/03 06:03:05;;;;;;;;;;;77.60;2227.20;;;;;;5048867;28;20024;-76
2023/02/03 06:05:32;;;;;;;6.88;3.20;;;77.70;2227.20;;;;;;5041864;28;19912;-76
2023/02/03 06:07:58;;;;;;;10.35;3.33;;;77.70;2227.20;;;;;;5043202;28;20115;-76
2023/02/03 06:10:24;;;;;;;;;;;77.70;2227.20;;;;;;5037622;28;20104;-77
2023/02/03 06:12:50;;;;;;;13.25;4.32;;;102.40;2227.20;;;;;;5044237;28;19909;-77
2023/02/03 06:15:16;;;;;;;;;;;102.40;2227.20;;;;;;5041057;28;20544;-78
2023/02/03 06:17:46;;;;;;;19.67;7.87;;;77.70;2227.20;;;;;;5045525;28;19927;-77
2023/02/03 06:20:13;;;;;;;24.67;9.75;;;77.70;2227.20;;;;;;5044324;28;20028;-75
2023/02/03 06:22:39;;;;;;;12.88;5.30;;;102.40;2227.20;;;;;;5057403;28;20569;-76
2023/02/03 06:25:05;;;;;;;;;;;102.40;2227.20;;;;;;5038454;28;20116;-74
2023/02/03 06:27:30;;;;;;;8.68;3.75;;;102.50;2227.20;;;;;;5045325;28;19909;-75
2023/02/03 06:29:56;;;;;;;;;;;77.70;2227.20;;;;;;5049451;28;20138;-76
2023/02/03 06:32:22;;;;;;;10.27;5.65;;;102.40;2227.20;;;;;;5047928;28;19911;-75
2023/02/03 06:34:47;;;;;;;;;;;102.40;2227.20;;;;;;5048791;28;20551;-76
2023/02/03 06:37:13;;;;;;;8.55;4.50;;;102.40;2227.20;;;;;;5048174;28;19950;-76
2023/02/03 06:39:39;;;;;;;;;;;102.40;2227.20;;;;;;5042275;28;20017;-75
2023/02/03 06:42:04;;;;;;;9.70;4.97;;;102.40;2227.20;;;;;;5039162;28;19908;-75
2023/02/03 06:44:30;;;;;;;;;;;102.40;2227.20;;;;;;5062792;28;20467;-75
2023/02/03 06:46:57;;;;;;;14.57;4.75;;;102.50;2227.20;;;;;;5048084;28;19904;-76
2023/02/03 06:49:23;;;;;;;7.63;4.20;;;102.50;2227.20;;;;;;5047646;28;20131;-76
2023/02/03 06:51:48;;;;;;;;;;;102.40;2227.20;;;;;;5061833;28;20096;-76
2023/02/03 06:54:14;;;;;;;9.75;4.45;;;102.40;2227.20;;;;;;5064801;28;20305;-76
2023/02/03 06:56:40;;;;;;;;;;;102.40;2227.20;;;;;;5048661;28;20052;-76
2023/02/03 06:59:05;;;;;;;9.30;3.55;;;102.50;2227.20;;;;;;5060276;28;20274;-76
2023/02/03 07:01:31;;;;;;;;;;;102.60;2227.20;;;;;;5042242;28;20021;-76
2023/02/03 07:03:57;;;;;;;10.55;4.28;;;102.60;2227.20;;;;;;5062728;28;19908;-76
2023/02/03 07:06:28;;;;;;;11.35;3.55;;;102.50;2227.20;;;;;;5044583;28;20059;-76
2023/02/03 07:08:55;;;;;;;8.93;4.43;;;102.50;2227.20;;;;;;5047714;28;20056;-75
2023/02/03 07:11:21;;;;;;;9.80;4.45;;;102.70;2227.20;;;;;;5047260;28;20124;-75
2023/02/03 07:13:47;;;;;;;;;;;102.70;2227.20;;;;;;5058185;28;20476;-76
2023/02/03 07:16:13;;;;;;;8.80;3.75;;;102.70;2227.20;;;;;;5041075;28;20350;-79
2023/02/03 07:18:39;;;;;;;10.10;3.70;;;102.70;2227.20;;;;;;5053034;28;20028;-79
2023/02/03 07:21:05;;;;;;;;;;;102.80;2227.20;;;;;;5047992;28;20032;-75
2023/02/03 07:23:31;;;;;;;7.30;4.07;;;102.80;2227.20;;;;;;5047522;28;20007;-75
2023/02/03 07:26:00;;;;;;;;;;;102.80;2227.20;;;;;;5061152;28;20573;-79
2023/02/03 07:28:26;;;;;;;10.98;3.92;;;102.80;2227.20;;;;;;5037966;28;20023;-75
2023/02/03 07:30:51;;;;;;;;;;;102.80;2227.20;;;;;;5058668;28;20120;-75
2023/02/03 07:33:17;;;;;;;8.70;4.60;;;102.90;2227.20;;;;;;5062651;28;19909;-75
2023/02/03 07:35:42;;;;;;;;;;;102.80;2227.20;;;;;;5062134;28;20029;-76
2023/02/03 07:38:08;;;;;;;7.45;3.72;;;103.00;2227.20;;;;;;5042395;28;19920;-76
2023/02/03 07:40:34;;;;;;;;;;;103.00;2227.20;;;;;;5064434;28;20473;-76
2023/02/03 07:42:59;;;;;;;9.68;4.35;;;103.10;2227.20;;;;;;5044146;28;19983;-77
2023/02/03 07:45:25;;;;;;;;;;;103.20;2227.20;;;;;;5062199;28;20421;-76
2023/02/03 07:47:51;;;;;;;9.65;4.25;;;103.30;2227.20;;;;;;5039811;28;19909;-79
2023/02/03 07:50:16;;;;;;;;;;;103.30;2227.20;;;;;;5059296;28;20060;-79
2023/02/03 07:52:42;;;;;;;12.30;5.22;;;128.10;2252.80;;;;;;5063296;28;19928;-77
2023/02/03 07:55:08;;;;;;;;;;;128.20;2252.80;;;;;;5060754;28;20024;-78
2023/02/03 07:57:34;;;;;;;12.98;4.03;;;128.30;2252.80;;;;;;5041185;28;20278;-78
2023/02/03 07:59:59;;;;;;;;;;;128.30;2252.80;;;;;;5045804;28;20025;-78
2023/02/03 08:02:25;;;;;;;9.07;4.50;;;128.40;2252.80;;;;;;5052027;28;19908;-78
2023/02/03 08:04:51;;;;;;;;;;;128.50;2252.80;;;;;;5045032;28;20024;-77
2023/02/03 08:07:16;;;;;;;10.75;5.25;;;128.50;2252.80;;;;;;5048817;28;19935;-78
2023/02/03 08:09:42;;;;;;;;;;;128.50;2252.80;;;;;;5045819;28;20029;-77
2023/02/03 08:12:07;;;;;;;11.07;5.70;;;128.60;2252.80;;;;;;5040868;28;19911;-78
2023/02/03 08:14:33;;;;;;;;;;;128.60;2252.80;;;;;;5049715;28;20033;-77
2023/02/03 08:16:59;;;;;;;13.27;5.05;;;128.70;2252.80;;;;;;5055987;28;19904;-78
2023/02/03 08:19:24;;;;;;;;;;;128.80;2252.80;;;;;;5047225;28;20029;-77
2023/02/03 08:21:50;;;;;;;16.25;8.70;;;128.80;2252.80;;;;;;5041868;28;19915;-78
2023/02/03 08:24:16;;;;;;;;;;;128.80;2252.80;;;;;;5048754;28;20066;-77
2023/02/03 08:26:41;;;;;;;11.70;5.88;;;128.90;2252.80;;;;;;5064231;28;20536;-78
2023/02/03 08:29:07;;;;;;;;;;;128.90;2252.80;;;;;;5046439;28;20045;-77
2023/02/03 08:31:33;;;;;;;12.82;5.13;;;128.90;2252.80;;;;;;5045786;28;19912;-78
2023/02/03 08:33:58;;;;;;;;;;;153.60;2252.80;;;;;;5039927;28;20029;-78
2023/02/03 08:36:24;;;;;;;13.65;6.30;;;153.60;2252.80;;;;;;5054396;28;19912;-77
2023/02/03 08:38:50;;;;;;;;;;;153.60;2252.80;;;;;;5046621;28;20017;-77
2023/02/03 08:41:17;;;;;;;10.07;5.25;;;153.70;2252.80;;;;;;5056027;28;19911;-78
2023/02/03 08:43:44;;;;;;;21.45;5.57;;;153.80;2252.80;;;;;;5038989;28;20020;-78
2023/02/03 08:46:11;;;;;;;11.73;4.85;;;153.80;2252.80;;;;;;5042682;28;20033;-76
2023/02/03 08:48:38;;;;;;;11.85;4.43;;;153.90;2252.80;;;;;;5063977;28;20040;-76
2023/02/03 08:51:15;;;;;;;9.43;4.15;;;153.80;2252.80;;;;;;5045791;28;20041;-79
2023/02/03 08:53:40;;;;;;;7.68;4.63;;;153.90;2252.80;;;;;;5043339;28;20119;-76
2023/02/03 08:56:07;;;;;;;;;;;154.00;2252.80;;;;;;5042796;28;20475;-77
2023/02/03 08:58:33;;;;;;;12.43;3.78;;;153.90;2252.80;;;;;;5069912;28;19904;-80
2023/02/03 09:01:05;;;;;;;;;;;153.90;2252.80;;;;;;5048548;28;20028;-82
2023/02/03 09:03:31;;;;;;;8.73;3.42;;;153.90;2252.80;;;;;;5041533;28;19905;-78
2023/02/03 09:05:56;;;;;;;;;;;153.90;2252.80;;;;;;5049984;28;20033;-76
2023/02/03 09:08:22;;;;;;;6.50;3.75;;;153.90;2252.80;;;;;;5040358;28;19939;-79
2023/02/03 09:10:48;;;;;;;;;;;153.90;2252.80;;;;;;5067032;28;20110;-77
2023/02/03 09:13:13;;;;;;;11.88;4.15;;;153.90;2252.80;;;;;;5048226;28;19958;-78
2023/02/03 09:15:39;;;;;;;;;;;154.00;2252.80;;;;;;5066601;28;20033;-78
2023/02/03 09:18:04;;;;;;;10.00;3.58;;;154.00;2252.80;;;;;;5066281;28;19908;-79
2023/02/03 09:20:30;;;;;;;;;;;154.00;2252.80;;;;;;5043328;28;20033;-77
2023/02/03 09:22:58;;;;;;;5.65;3.00;;;154.10;2252.80;;;;;;5048712;28;19943;-78
2023/02/03 09:25:24;;;;;;;6.53;3.13;;;154.20;2252.80;;;;;;5058273;28;20029;-77
2023/02/03 09:27:49;;;;;;;;;;;154.20;2252.80;;;;;;5056930;28;20037;-79
2023/02/03 09:30:15;;;;;;;13.43;4.18;;;154.20;2252.80;;;;;;5064244;28;19905;-77
2023/02/03 09:32:41;;;;;;;10.48;5.28;;;154.30;2252.80;;;;;;5044053;28;20066;-77
2023/02/03 09:35:07;;;;;;;;;;;154.30;2252.80;;;;;;5043509;28;20036;-78
2023/02/03 09:37:32;;;;;;;23.42;9.85;;;154.20;2252.80;;;;;;5067448;28;19905;-77
2023/02/03 09:39:58;;;;;;;;;;;154.40;2252.80;;;;;;5048693;28;20028;-78
2023/02/03 09:42:42;;;;;;;6.40;3.13;;;154.50;2252.80;;;;;;5064972;28;19911;-78
2023/02/03 09:45:21;;;;;;;17.65;5.75;;;179.30;2252.80;;;;;;5051147;28;20036;-77
2023/02/03 09:47:54;;;;;;;11.00;3.70;;;179.30;2252.80;;;;;;5067437;28;20029;-76
2023/02/03 09:50:23;;;;;;;10.48;3.78;;;179.30;2252.80;;;;;;5051365;28;20390;-77
2023/02/03 09:52:50;;;;;;;8.98;3.08;;;179.40;2252.80;;;;;;5053338;28;20052;-77
2023/02/03 09:55:27;;;;;;;12.55;3.78;;;179.50;2252.80;;;;;;5050367;28;20182;-77
2023/02/03 09:58:08;;;;;;;12.90;4.88;;;179.30;2252.80;;;;;;5061494;28;20029;-77
2023/02/03 10:00:50;;;;;;;10.27;4.38;;;179.30;2252.80;;;;;;5061996;28;20033;-77
2023/02/03 10:03:37;;;;;;;9.88;3.60;;;179.40;2252.80;;;;;;5040733;28;20601;-77
2023/02/03 10:06:24;;;;;;;6.43;3.20;;;179.40;2252.80;;;;;;5064380;28;20051;-77
2023/02/03 10:08:59;;;;;;;9.90;3.95;;;179.50;2252.80;;;;;;5038857;28;20033;-77
2023/02/03 10:11:55;;;;;;;12.05;4.53;;;179.60;2252.80;;;;;;5062453;28;20022;-78
2023/02/03 10:14:47;;;;;;;7.50;3.40;;;179.40;2252.80;;;;;;5062491;28;20107;-76
2023/02/03 10:17:37;;;;;;;8.43;3.95;;;179.40;2252.80;;;;;;5042469;28;20052;-77
2023/02/03 10:20:02;;;;;;;16.48;5.85;;;179.60;2252.80;;;;;;5066145;28;20036;-76
2023/02/03 10:22:29;;;;;;;;;;;179.50;2252.80;;;;;;5049004;28;20028;-76
2023/02/03 10:25:05;;;;;;;14.85;5.55;;;179.60;2252.80;;;;;;5049119;28;19912;-76
2023/02/03 10:27:32;;;;;;;10.25;3.47;;;179.60;2252.80;;;;;;5062856;28;20067;-77
2023/02/03 10:30:23;;;;;;;14.57;5.70;;;179.70;2252.80;;;;;;5046480;28;20123;-77
2023/02/03 10:32:56;;;;;;;14.05;5.07;;;179.80;2252.80;;;;;;5039707;28;20497;-77
2023/02/03 10:35:35;;;;;;;15.43;5.13;;;180.00;2252.80;;;;;;5046062;28;20028;-78
2023/02/03 10:38:04;;;;;;;11.02;4.35;;;204.80;2252.80;;;;;;5044510;28;20487;-78
2023/02/03 10:40:30;;;;;;;10.95;3.10;;;180.10;2201.60;;;;;;5049836;28;20039;-78
2023/02/03 10:45:40;;;;;;;13.18;5.93;;;205.10;2176.00;;;;;;5062539;28;19962;-77
2023/02/03 10:48:10;;;;;;;;;;;205.20;2227.20;;;;;;5039609;28;20057;-78
2023/02/03 10:50:46;;;;;;;11.35;5.28;;;205.30;2124.80;;;;;;5043157;28;19966;-78
2023/02/03 10:53:24;;;;;;;7.70;3.55;;;205.30;2124.80;;;;;;5043513;28;20049;-78
2023/02/03 10:56:08;;;;;;;14.55;6.82;;;205.30;2048.00;;;;;;5045314;28;20056;-78
2023/02/03 10:58:36;;;;;;;46.88;19.13;;;205.40;2022.40;;;;;;5045984;28;20116;-77
2023/02/03 11:01:13;;;;;;;37.47;15.88;;;205.70;1996.80;;;;;;5051891;28;20025;-76
2023/02/03 11:04:02;;;;;;;9.73;4.75;;;230.60;1945.60;;;;;;5057973;28;20021;-76
2023/02/03 11:06:29;;;;;;;9.32;3.30;;;230.40;1920.00;;;;;;5042551;28;20430;-76
2023/02/03 11:08:55;;;;;;;49.22;16.75;;;230.70;1894.40;;;;;;5035818;28;20040;-77
2023/02/03 11:11:31;;;;;;;19.50;8.13;;;230.90;1894.40;;;;;;5061253;28;20025;-76
2023/02/03 11:14:03;;;;;;;9.30;3.42;;;231.00;1894.40;;;;;;5056903;28;20379;-80
2023/02/03 11:16:31;;;;;;;11.40;3.55;;;230.90;1843.20;;;;;;5063323;28;20016;-83
2023/02/03 11:19:08;;;;;;;7.47;3.08;;;231.00;1843.20;;;;;;5065796;28;20024;-82
2023/02/03 11:21:37;;;;;;;7.00;2.22;;;231.30;1843.20;;;;;;5044463;28;20035;-81
2023/02/03 11:24:22;;;;;;;4.65;2.40;;;231.20;1792.00;;;;;;5049732;28;20037;-85
2023/02/03 11:26:59;;;;;;;7.60;3.15;;;231.00;1843.20;;;;;;5043884;28;20029;-84
2023/02/03 11:29:34;;;;;;;8.68;4.22;;;231.10;1843.20;;;;;;5066709;28;20041;-76
2023/02/03 11:32:33;;;;;;;8.38;2.83;;;231.00;1843.20;;;;;;5039316;28;20022;-83
2023/02/03 11:35:15;;;;;;;5.68;2.60;;;230.90;1843.20;;;;;;5041195;28;20029;-76
2023/02/03 11:37:44;;;;;;;6.88;2.63;;;231.10;1817.60;;;;;;5071619;28;20115;-76
2023/02/03 11:40:10;;;;;;;11.65;3.67;;;231.10;1817.60;;;;;;5070006;28;20090;-75
2023/02/03 11:42:40;;;;;;;13.38;4.70;;;231.20;1843.20;;;;;;5066923;28;20406;-75
2023/02/03 11:45:27;;;;;;;9.38;3.53;;;231.30;1868.80;;;;;;5070158;28;20029;-73
2023/02/03 11:47:58;;;;;;;8.88;5.30;;;256.00;1868.80;;;;;;5060335;28;20471;-75
2023/02/03 11:50:34;;;;;;;8.60;4.20;;;256.10;1868.80;;;;;;5061617;28;20028;-76
2023/02/03 11:53:37;;;;;;;5.90;3.25;;;231.30;1894.40;;;;;;5064708;28;20087;-76
2023/02/03 11:56:19;;;;;;;5.95;3.15;;;231.00;1894.40;;;;;;4968454;28;20046;-76
2023/02/03 11:59:02;;;;;;;8.73;3.75;;;230.90;1894.40;;;;;;4971104;28;20121;-76
2023/02/03 12:01:45;;;;;;;7.18;4.05;;;230.80;1945.60;;;;;;4964664;28;20493;-75
2023/02/03 12:04:23;;;;;;;11.88;4.57;;;230.70;1945.60;;;;;;4968117;28;20047;-76
2023/02/03 12:07:00;;;;;;;10.40;3.60;;;230.80;2022.40;;;;;;4963726;28;20074;-76
2023/02/03 12:09:39;;;;;;;10.02;5.00;;;230.60;2048.00;;;;;;4966338;28;20082;-76
2023/02/03 12:12:32;;;;;;;11.20;4.18;;;230.60;2048.00;;;;;;4950102;28;20050;-76
2023/02/03 12:15:01;;;;;;;8.02;4.82;;;230.60;2048.00;;;;;;4968203;28;20027;-76
2023/02/03 12:17:50;;;;;;;10.00;4.85;;;230.60;2073.60;;;;;;4967199;28;20030;-77
2023/02/03 12:20:43;;;;;;;10.48;3.92;;;230.50;2150.40;;;;;;4953330;28;20030;-76
2023/02/03 12:23:36;;;;;;;7.50;3.63;;;230.40;2150.40;;;;;;4968913;28;20030;-76
2023/02/03 12:26:10;;;;;;;12.18;3.97;;;205.70;2124.80;;;;;;4967749;28;20045;-75
2023/02/03 12:28:42;;;;;;;15.75;3.88;;;205.70;2252.80;;;;;;4955512;28;20066;-76
2023/02/03 12:31:29;;;;;;;13.75;4.53;;;205.60;2252.80;;;;;;4972454;28;20501;-77
2023/02/03 12:34:16;;;;;;;10.52;3.20;;;205.60;2252.80;;;;;;5040858;28;20182;-77
2023/02/03 12:36:52;;;;;;;8.55;3.63;;;205.50;2252.80;;;;;;5042498;28;20033;-76
2023/02/03 12:39:29;;;;;;;11.18;3.67;;;205.40;2252.80;;;;;;5047387;28;20028;-77
2023/02/03 12:42:06;;;;;;;12.15;4.60;;;205.40;2252.80;;;;;;5048221;28;20028;-75
2023/02/03 12:44:42;;;;;;;10.75;4.88;;;205.40;2252.80;;;;;;5058008;28;20014;-75
2023/02/03 12:47:35;;;;;;;9.23;4.38;;;205.40;2252.80;;;;;;5058804;28;20028;-76
2023/02/03 12:50:27;;;;;;;11.77;3.78;;;205.40;2252.80;;;;;;5047093;28;20060;-75
2023/02/03 12:52:58;;;;;;;9.93;4.35;;;205.40;2252.80;;;;;;5051061;28;20041;-76
2023/02/03 12:55:46;;;;;;;34.72;15.18;;;205.30;2252.80;;;;;;5046337;28;20032;-75
2023/02/03 12:58:27;;;;;;;16.92;7.15;;;205.20;2252.80;;;;;;5069111;28;20017;-74
2023/02/03 13:01:03;;;;;;;10.95;6.85;;;205.20;2252.80;;;;;;5067474;28;20094;-76